METAR Data
IDs: Format: Raw Decoded Include TAF

Data at: 1343 UTC 20 Oct 2021

PAMC 201319Z AUTO 00000KT 4SM -SN BR BKN022 OVC034 M04/M04 A2927 RMK AO2 P0001 T10391044 TSNO